createdAt,value
2018-11-12T00:16:18.753Z,7.40
2018-11-12T00:19:33.689Z,7.50
2018-11-12T00:22:45.434Z,7.50
2018-11-12T00:29:01.698Z,7.60
2018-11-12T00:32:06.716Z,7.60
2018-11-12T00:35:11.445Z,7.60
2018-11-12T00:38:15.525Z,7.50
2018-11-12T00:41:19.425Z,7.50
2018-11-12T00:44:23.132Z,7.50
2018-11-12T00:47:27.562Z,7.50
2018-11-12T00:50:30.609Z,7.60
2018-11-12T00:53:34.133Z,7.60
2018-11-12T00:56:37.689Z,7.50
2018-11-12T00:59:42.227Z,7.50
2018-11-12T01:02:50.262Z,7.40
2018-11-12T01:05:54.454Z,7.40
2018-11-12T01:08:57.442Z,7.40
2018-11-12T01:12:00.989Z,7.50
2018-11-12T01:15:04.842Z,7.50
2018-11-12T01:18:08.617Z,7.50
2018-11-12T01:21:13.017Z,7.50
2018-11-12T01:24:17.078Z,7.50
2018-11-12T01:27:20.117Z,7.50
2018-11-12T01:30:24.236Z,7.40
2018-11-12T01:33:27.734Z,7.40
2018-11-12T01:36:31.837Z,7.40
2018-11-12T01:39:35.434Z,7.40
2018-11-12T01:42:39.301Z,7.40
2018-11-12T01:45:44.018Z,7.30
2018-11-12T01:48:47.845Z,7.40
2018-11-12T01:51:53.705Z,7.40
2018-11-12T01:54:57.786Z,7.40
2018-11-12T01:58:01.714Z,7.40
2018-11-12T02:01:05.661Z,7.40
2018-11-12T02:04:09.362Z,7.40
2018-11-12T02:07:12.918Z,7.40
2018-11-12T02:10:16.889Z,7.40
2018-11-12T02:13:20.505Z,7.40
2018-11-12T02:16:24.005Z,7.40
2018-11-12T02:19:28.061Z,7.40
2018-11-12T02:22:31.091Z,7.40
2018-11-12T02:25:34.029Z,7.40
2018-11-12T02:28:38.173Z,7.50
2018-11-12T02:31:41.803Z,7.50
2018-11-12T02:34:45.458Z,7.50
2018-11-12T02:37:50.287Z,7.50
2018-11-12T02:40:53.998Z,7.40
2018-11-12T02:43:59.342Z,7.40
2018-11-12T02:47:04.542Z,7.40
2018-11-12T02:50:10.092Z,7.40
2018-11-12T02:53:14.662Z,7.40
2018-11-12T02:56:18.784Z,7.50
2018-11-12T02:59:22.749Z,7.40
2018-11-12T03:02:26.916Z,7.40
2018-11-12T03:05:30.837Z,7.40
2018-11-12T03:08:35.561Z,7.40
2018-11-12T03:11:39.282Z,7.40
2018-11-12T03:14:43.469Z,7.30
2018-11-12T03:17:47.891Z,7.20
2018-11-12T03:20:51.929Z,7.20
2018-11-12T03:23:55.625Z,7.20
2018-11-12T03:26:59.261Z,7.20
2018-11-12T03:30:02.345Z,7.20
2018-11-12T03:33:06.241Z,7.20
2018-11-12T03:36:09.842Z,7.20
2018-11-12T03:39:12.810Z,7.10
2018-11-12T03:42:16.233Z,7.10
2018-11-12T03:45:20.471Z,7.10
2018-11-12T03:48:25.392Z,7.10
2018-11-12T03:51:29.439Z,7.10
2018-11-12T03:54:32.526Z,7.10
2018-11-12T03:57:36.841Z,7.10
2018-11-12T04:00:41.146Z,7.10
2018-11-12T04:03:44.841Z,6.90
2018-11-12T04:06:49.062Z,6.80
2018-11-12T04:09:52.121Z,6.80
2018-11-12T04:12:55.792Z,6.80
2018-11-12T04:15:58.600Z,6.80
2018-11-12T04:19:01.400Z,6.80
2018-11-12T04:22:04.561Z,6.70
2018-11-12T04:25:08.129Z,6.70
2018-11-12T04:28:10.933Z,6.70
2018-11-12T04:31:13.713Z,6.70
2018-11-12T04:34:16.601Z,6.80
2018-11-12T04:37:19.406Z,6.80
2018-11-12T04:40:22.267Z,6.70
2018-11-12T04:43:25.050Z,6.70
2018-11-12T04:46:27.881Z,6.60
2018-11-12T04:49:30.654Z,6.60
2018-11-12T04:52:33.449Z,6.50
2018-11-12T04:55:36.589Z,6.50
2018-11-12T04:58:39.377Z,6.40
2018-11-12T05:01:42.218Z,6.20
2018-11-12T05:04:45.014Z,6.20
2018-11-12T05:07:47.965Z,6.20
2018-11-12T05:10:50.758Z,6.10
2018-11-12T05:13:53.600Z,6.10
2018-11-12T05:16:56.377Z,6.10
2018-11-12T05:19:59.246Z,6.00
2018-11-12T05:23:02.022Z,5.90
2018-11-12T05:26:04.911Z,5.80
2018-11-12T05:29:07.690Z,5.80
2018-11-12T05:32:10.545Z,5.80
2018-11-12T05:35:14.559Z,5.80
2018-11-12T05:38:17.444Z,5.90
2018-11-12T05:41:20.341Z,5.90
2018-11-12T05:44:23.149Z,5.80
2018-11-12T05:47:25.981Z,5.80
2018-11-12T05:50:30.327Z,5.90
2018-11-12T05:53:33.150Z,5.90
2018-11-12T05:56:35.937Z,5.90
2018-11-12T05:59:38.741Z,5.90
2018-11-12T06:02:41.865Z,5.80
2018-11-12T06:05:44.663Z,5.80
2018-11-12T06:08:47.494Z,5.80
2018-11-12T06:11:50.308Z,5.80
2018-11-12T06:14:53.129Z,5.80
2018-11-12T06:17:55.913Z,5.90
2018-11-12T06:20:58.799Z,5.90
2018-11-12T06:24:01.583Z,5.90
2018-11-12T06:27:04.563Z,6.00
2018-11-12T06:30:10.643Z,6.00
2018-11-12T06:33:13.565Z,6.00
2018-11-12T06:36:16.382Z,6.10
2018-11-12T06:39:19.303Z,6.10
2018-11-12T06:42:22.084Z,6.10
2018-11-12T06:45:26.161Z,6.20
2018-11-12T06:48:28.942Z,6.20
2018-11-12T06:51:31.767Z,6.30
2018-11-12T06:54:34.550Z,6.30
2018-11-12T06:57:37.413Z,6.40
2018-11-12T07:00:40.348Z,6.50
2018-11-12T07:03:43.146Z,6.60
2018-11-12T07:06:45.954Z,6.70
2018-11-12T07:09:48.927Z,6.60
2018-11-12T07:12:52.720Z,6.60
2018-11-12T07:15:55.524Z,6.60
2018-11-12T07:18:58.411Z,6.70
2018-11-12T07:22:01.193Z,6.70
2018-11-12T07:25:04.278Z,6.70
2018-11-12T07:28:07.078Z,6.80
2018-11-12T07:31:09.919Z,6.80
2018-11-12T07:34:12.690Z,6.90
2018-11-12T07:37:15.473Z,7.00
2018-11-12T07:40:18.716Z,7.00
2018-11-12T07:43:21.543Z,7.10
2018-11-12T07:46:24.370Z,7.20
2018-11-12T07:49:27.305Z,7.30
2018-11-12T07:52:30.129Z,7.40
2018-11-12T07:55:33.982Z,7.50
2018-11-12T07:58:36.806Z,7.50
2018-11-12T08:01:39.598Z,7.70
2018-11-12T08:04:42.390Z,7.70
2018-11-12T08:07:45.591Z,7.80
2018-11-12T08:10:48.657Z,7.70
2018-11-12T08:13:51.446Z,7.90
2018-11-12T08:16:54.237Z,7.90
2018-11-12T08:19:57.251Z,8.00
2018-11-12T08:23:00.086Z,8.00
2018-11-12T08:26:03.087Z,8.10
2018-11-12T08:29:05.986Z,8.10
2018-11-12T08:32:08.817Z,8.10
2018-11-12T08:35:12.298Z,8.20
2018-11-12T08:38:15.183Z,8.20
2018-11-12T08:41:18.004Z,8.20
2018-11-12T08:44:20.781Z,8.20
2018-11-12T08:47:23.574Z,8.20
2018-11-12T08:50:27.105Z,8.30
2018-11-12T08:53:29.922Z,8.30
2018-11-12T08:56:33.377Z,8.30
2018-11-12T08:59:36.233Z,8.30
2018-11-12T09:02:42.265Z,8.40
2018-11-12T09:05:45.096Z,8.40
2018-11-12T09:08:47.942Z,8.40
2018-11-12T09:11:50.749Z,8.40
2018-11-12T09:14:53.545Z,8.40
2018-11-12T09:17:56.341Z,8.50
2018-11-12T09:20:59.141Z,8.60
2018-11-12T09:24:02.372Z,8.70
2018-11-12T09:27:05.732Z,8.80
2018-11-12T09:30:11.430Z,8.90
2018-11-12T09:33:14.441Z,9.00
2018-11-12T09:36:17.320Z,9.20
2018-11-12T09:39:20.206Z,9.30
2018-11-12T09:42:23.052Z,9.30
2018-11-12T09:45:26.005Z,9.40
2018-11-12T09:48:28.802Z,9.50
2018-11-12T10:35:54.209Z,13.10
2018-11-12T10:39:03.668Z,13.10
2018-11-12T10:42:18.462Z,13.10
2018-11-12T10:45:35.038Z,13.00
2018-11-12T13:43:06.691Z,13.60
2018-11-12T14:08:10.666Z,13.70
2018-11-12T14:51:42.488Z,13.30
2018-11-12T14:54:46.993Z,13.10
2018-11-12T14:57:55.386Z,13.10
2018-11-12T15:01:00.581Z,12.90
2018-11-12T15:04:06.085Z,12.80
2018-11-12T15:07:17.162Z,12.70
2018-11-12T15:10:21.307Z,12.60
2018-11-12T15:13:25.590Z,12.40
2018-11-12T15:16:29.930Z,12.30
2018-11-12T15:19:34.192Z,12.40
2018-11-12T15:22:38.778Z,12.30
2018-11-12T15:25:43.326Z,12.10
2018-11-12T15:28:48.302Z,12.10
2018-11-12T15:31:53.898Z,11.90
2018-11-12T15:34:58.178Z,11.80
2018-11-12T15:38:01.186Z,11.70
2018-11-12T15:41:05.558Z,11.60
2018-11-12T15:44:09.213Z,11.60
2018-11-12T15:47:13.213Z,11.70
2018-11-12T15:50:32.708Z,11.60
2018-11-12T15:53:50.250Z,11.40
2018-11-12T15:56:53.248Z,11.30
2018-11-12T15:59:59.993Z,11.30
2018-11-12T16:03:04.097Z,11.30
2018-11-12T16:06:07.811Z,11.30
2018-11-12T16:09:13.401Z,11.50
2018-11-12T16:12:16.564Z,11.60
2018-11-12T16:15:22.186Z,11.70
2018-11-12T16:18:27.501Z,11.80
2018-11-12T16:21:31.046Z,11.80
2018-11-12T16:24:35.668Z,11.80
2018-11-12T16:27:39.625Z,11.80
2018-11-12T16:30:43.834Z,11.70
2018-11-12T16:33:47.422Z,11.80
2018-11-12T16:36:52.324Z,11.80
2018-11-12T16:39:55.346Z,11.80
2018-11-12T16:43:00.841Z,11.70
2018-11-12T16:46:04.559Z,11.60
2018-11-12T16:49:09.821Z,11.70
2018-11-12T16:52:13.294Z,11.70
2018-11-12T16:55:20.808Z,11.70
2018-11-12T16:58:24.425Z,11.90
2018-11-12T17:01:30.564Z,12.20
2018-11-12T17:04:33.694Z,12.20
2018-11-12T17:07:41.777Z,12.30
2018-11-12T17:10:45.569Z,12.40
2018-11-12T17:13:50.417Z,12.40
2018-11-12T17:16:54.113Z,12.40
2018-11-12T17:19:59.478Z,12.30
2018-11-12T17:23:03.204Z,12.30
2018-11-12T17:26:07.392Z,12.30
2018-11-12T17:29:10.453Z,12.40
2018-11-12T17:32:20.266Z,12.50
2018-11-12T17:35:28.415Z,12.50
2018-11-12T17:38:32.335Z,12.40
2018-11-12T17:41:42.276Z,12.40
2018-11-12T17:44:47.069Z,12.30
2018-11-12T17:47:51.047Z,12.20
2018-11-12T17:51:06.098Z,12.20
2018-11-12T17:54:14.820Z,12.20
2018-11-12T17:57:18.319Z,12.10
2018-11-12T18:00:30.019Z,12.00
2018-11-12T18:03:33.831Z,12.00
2018-11-12T18:06:37.434Z,11.90
2018-11-12T18:09:43.301Z,11.80
2018-11-12T18:12:47.690Z,11.80
2018-11-12T18:16:01.882Z,11.70
2018-11-12T18:19:05.819Z,11.70
2018-11-12T18:22:09.685Z,11.70
2018-11-12T18:25:15.202Z,11.70
2018-11-12T18:28:19.285Z,11.90
2018-11-12T18:31:23.841Z,12.10
2018-11-12T18:34:27.798Z,12.20
2018-11-12T18:37:32.754Z,12.30
2018-11-12T18:40:36.416Z,12.30
2018-11-12T18:43:42.678Z,12.20
2018-11-12T18:46:47.678Z,12.00
2018-11-12T18:49:52.638Z,11.90
2018-11-12T18:52:55.776Z,11.70
2018-11-12T18:55:58.736Z,11.70
2018-11-12T18:59:02.777Z,11.70
2018-11-12T19:02:06.742Z,11.70
2018-11-12T19:05:15.519Z,11.80
2018-11-12T19:08:19.090Z,12.00
2018-11-12T19:11:23.166Z,12.10
2018-11-12T19:14:26.225Z,12.00
2018-11-12T19:17:30.725Z,11.90
2018-11-12T19:20:34.701Z,11.90
2018-11-12T19:23:39.293Z,11.90
2018-11-12T19:26:43.125Z,11.90
2018-11-12T19:29:47.937Z,11.80
2018-11-12T19:32:51.338Z,11.80
2018-11-12T19:36:00.498Z,11.80
2018-11-12T19:39:05.981Z,11.80
2018-11-12T19:42:10.010Z,11.90
2018-11-12T19:45:13.873Z,11.90
2018-11-12T19:48:19.309Z,11.80
2018-11-12T19:51:22.945Z,11.90
2018-11-12T19:54:28.351Z,11.80
2018-11-12T19:57:32.563Z,11.80
2018-11-12T20:00:37.005Z,11.80
2018-11-12T20:03:41.150Z,11.80
2018-11-12T20:06:46.242Z,11.70
2018-11-12T20:09:50.390Z,11.60
2018-11-12T20:12:54.663Z,11.60
2018-11-12T20:15:59.929Z,11.60
2018-11-12T20:19:05.670Z,11.60
2018-11-12T20:22:09.161Z,11.50
2018-11-12T20:25:14.067Z,11.40
2018-11-12T20:28:17.857Z,11.40
2018-11-12T20:31:20.917Z,11.40
2018-11-12T20:34:23.943Z,11.40
2018-11-12T20:37:28.410Z,11.40
2018-11-12T20:40:32.640Z,11.40
2018-11-12T20:43:36.468Z,11.40
2018-11-12T20:46:41.579Z,11.30
2018-11-12T20:49:44.678Z,11.30
2018-11-12T20:52:50.299Z,11.20
2018-11-12T20:55:53.326Z,11.20
2018-11-12T20:58:56.821Z,11.10
2018-11-12T21:02:01.733Z,11.10
2018-11-12T21:05:05.589Z,11.10
2018-11-12T21:08:09.753Z,11.20
2018-11-12T21:11:13.432Z,11.20
2018-11-12T21:14:16.493Z,11.00
2018-11-12T21:17:21.053Z,11.00
2018-11-12T21:20:25.055Z,11.00
2018-11-12T21:23:28.894Z,10.90
2018-11-12T21:26:33.149Z,10.90
2018-11-12T21:29:36.105Z,11.00
2018-11-12T21:32:40.185Z,11.10
2018-11-12T21:35:43.131Z,11.10
2018-11-12T21:38:46.123Z,11.20
2018-11-12T21:41:49.901Z,11.40
2018-11-12T21:44:53.641Z,11.30
2018-11-12T21:47:57.790Z,11.20
2018-11-12T21:51:00.742Z,11.10
2018-11-12T21:54:04.673Z,11.00
2018-11-12T21:57:09.509Z,10.90
2018-11-12T22:00:30.429Z,10.90
2018-11-12T22:03:34.253Z,11.00
2018-11-12T22:06:38.045Z,11.00
2018-11-12T22:09:42.262Z,11.00
2018-11-12T22:12:47.516Z,11.00
2018-11-12T22:15:50.450Z,11.10
2018-11-12T22:18:53.225Z,11.00
2018-11-12T22:21:55.997Z,11.10
2018-11-12T22:24:58.789Z,11.00
2018-11-12T22:28:02.630Z,10.90
2018-11-12T22:31:05.832Z,10.80
2018-11-12T22:34:09.285Z,10.80
2018-11-12T22:37:13.317Z,10.70
2018-11-12T22:40:18.457Z,10.80
2018-11-12T22:43:21.501Z,10.90
2018-11-12T22:46:25.014Z,10.90
2018-11-12T22:49:28.100Z,11.10
2018-11-12T22:52:31.577Z,11.30
2018-11-12T22:55:35.105Z,11.20
2018-11-12T22:58:39.022Z,11.30
2018-11-12T23:01:42.726Z,11.30
2018-11-12T23:04:46.302Z,11.30
2018-11-12T23:07:49.663Z,11.40
2018-11-12T23:10:52.441Z,11.40
2018-11-12T23:13:55.221Z,11.40
2018-11-12T23:16:58.957Z,11.30
2018-11-12T23:20:01.998Z,11.30
2018-11-12T23:23:05.826Z,11.30
2018-11-12T23:26:09.391Z,11.40
2018-11-12T23:29:12.499Z,11.30
2018-11-12T23:32:15.601Z,11.30
2018-11-12T23:35:21.167Z,11.40
2018-11-12T23:38:25.561Z,11.30
2018-11-12T23:41:28.673Z,11.30
2018-11-12T23:44:33.210Z,11.20
2018-11-12T23:47:36.750Z,11.20
2018-11-12T23:50:40.994Z,11.20
2018-11-12T23:53:44.677Z,11.10
2018-11-12T23:56:48.810Z,11.00
2018-11-12T23:59:53.386Z,11.00
